sensor_id;sensor_type;location;lat;lon;timestamp;P1;durP1;ratioP1;P2;durP2;ratioP2
63499;SDS011;49654;51.142;14.924;2023-01-15T00:01:55;4.45;;;2.13;;
63499;SDS011;49654;51.142;14.924;2023-01-15T00:04:25;4.40;;;1.90;;
63499;SDS011;49654;51.142;14.924;2023-01-15T00:06:53;2.97;;;1.60;;
63499;SDS011;49654;51.142;14.924;2023-01-15T00:09:22;3.77;;;2.00;;
63499;SDS011;49654;51.142;14.924;2023-01-15T00:11:49;5.43;;;1.70;;
63499;SDS011;49654;51.142;14.924;2023-01-15T00:14:16;5.90;;;2.17;;
63499;SDS011;49654;51.142;14.924;2023-01-15T00:16:43;3.87;;;1.70;;
63499;SDS011;49654;51.142;14.924;2023-01-15T00:19:10;5.23;;;2.10;;
63499;SDS011;49654;51.142;14.924;2023-01-15T00:21:38;4.57;;;1.80;;
63499;SDS011;49654;51.142;14.924;2023-01-15T00:24:07;3.53;;;1.60;;
63499;SDS011;49654;51.142;14.924;2023-01-15T00:26:52;2.97;;;1.73;;
63499;SDS011;49654;51.142;14.924;2023-01-15T00:29:36;5.90;;;2.00;;
63499;SDS011;49654;51.142;14.924;2023-01-15T00:32:04;3.78;;;1.75;;
63499;SDS011;49654;51.142;14.924;2023-01-15T00:34:32;6.40;;;1.90;;
63499;SDS011;49654;51.142;14.924;2023-01-15T00:37:01;1.80;;;1.50;;
63499;SDS011;49654;51.142;14.924;2023-01-15T00:39:28;3.27;;;1.60;;
63499;SDS011;49654;51.142;14.924;2023-01-15T00:41:58;5.10;;;2.33;;
63499;SDS011;49654;51.142;14.924;2023-01-15T00:44:27;5.37;;;1.80;;
63499;SDS011;49654;51.142;14.924;2023-01-15T00:46:57;3.00;;;1.60;;
63499;SDS011;49654;51.142;14.924;2023-01-15T00:49:26;2.60;;;1.53;;
63499;SDS011;49654;51.142;14.924;2023-01-15T00:51:55;4.47;;;2.40;;
63499;SDS011;49654;51.142;14.924;2023-01-15T00:54:24;3.90;;;2.00;;
63499;SDS011;49654;51.142;14.924;2023-01-15T00:56:58;3.10;;;2.00;;
63499;SDS011;49654;51.142;14.924;2023-01-15T00:59:28;3.07;;;1.90;;
63499;SDS011;49654;51.142;14.924;2023-01-15T01:01:58;3.23;;;1.90;;
63499;SDS011;49654;51.142;14.924;2023-01-15T01:04:28;4.23;;;1.87;;
63499;SDS011;49654;51.142;14.924;2023-01-15T01:06:56;4.47;;;1.80;;
63499;SDS011;49654;51.142;14.924;2023-01-15T01:09:27;4.43;;;2.07;;
63499;SDS011;49654;51.142;14.924;2023-01-15T01:11:54;2.37;;;1.40;;
63499;SDS011;49654;51.142;14.924;2023-01-15T01:14:23;5.00;;;2.20;;
63499;SDS011;49654;51.142;14.924;2023-01-15T01:16:52;5.03;;;2.20;;
63499;SDS011;49654;51.142;14.924;2023-01-15T01:19:26;2.40;;;1.80;;
63499;SDS011;49654;51.142;14.924;2023-01-15T01:21:54;5.60;;;2.22;;
63499;SDS011;49654;51.142;14.924;2023-01-15T01:24:22;3.13;;;2.10;;
63499;SDS011;49654;51.142;14.924;2023-01-15T01:26:51;4.63;;;2.17;;
63499;SDS011;49654;51.142;14.924;2023-01-15T01:29:21;2.93;;;2.00;;
63499;SDS011;49654;51.142;14.924;2023-01-15T01:31:49;2.45;;;1.88;;
63499;SDS011;49654;51.142;14.924;2023-01-15T01:34:19;5.47;;;2.10;;
63499;SDS011;49654;51.142;14.924;2023-01-15T01:36:49;3.20;;;1.90;;
63499;SDS011;49654;51.142;14.924;2023-01-15T01:39:18;3.70;;;1.83;;
63499;SDS011;49654;51.142;14.924;2023-01-15T01:41:47;3.13;;;1.90;;
63499;SDS011;49654;51.142;14.924;2023-01-15T01:47:29;7.75;;;2.17;;
63499;SDS011;49654;51.142;14.924;2023-01-15T01:49:59;5.27;;;2.20;;
63499;SDS011;49654;51.142;14.924;2023-01-15T01:52:30;2.55;;;1.83;;
63499;SDS011;49654;51.142;14.924;2023-01-15T01:55:01;3.63;;;1.63;;
63499;SDS011;49654;51.142;14.924;2023-01-15T01:57:34;2.63;;;1.50;;
63499;SDS011;49654;51.142;14.924;2023-01-15T02:00:02;4.00;;;1.80;;
63499;SDS011;49654;51.142;14.924;2023-01-15T02:02:39;3.83;;;2.13;;
63499;SDS011;49654;51.142;14.924;2023-01-15T02:05:14;3.93;;;1.90;;
63499;SDS011;49654;51.142;14.924;2023-01-15T02:07:55;3.97;;;1.70;;
63499;SDS011;49654;51.142;14.924;2023-01-15T02:10:25;4.10;;;1.90;;
63499;SDS011;49654;51.142;14.924;2023-01-15T02:12:59;3.58;;;2.00;;
63499;SDS011;49654;51.142;14.924;2023-01-15T02:15:34;2.88;;;2.05;;
63499;SDS011;49654;51.142;14.924;2023-01-15T02:18:09;2.85;;;1.80;;
63499;SDS011;49654;51.142;14.924;2023-01-15T02:20:57;3.22;;;1.80;;
63499;SDS011;49654;51.142;14.924;2023-01-15T02:29:22;5.05;;;2.15;;
63499;SDS011;49654;51.142;14.924;2023-01-15T02:31:54;3.25;;;1.77;;
63499;SDS011;49654;51.142;14.924;2023-01-15T02:34:24;3.57;;;2.20;;
63499;SDS011;49654;51.142;14.924;2023-01-15T02:36:56;5.05;;;1.90;;
63499;SDS011;49654;51.142;14.924;2023-01-15T02:39:27;3.65;;;2.10;;
63499;SDS011;49654;51.142;14.924;2023-01-15T02:42:00;2.88;;;1.80;;
63499;SDS011;49654;51.142;14.924;2023-01-15T02:44:31;2.50;;;1.98;;
63499;SDS011;49654;51.142;14.924;2023-01-15T02:47:02;3.75;;;2.15;;
63499;SDS011;49654;51.142;14.924;2023-01-15T02:49:32;4.60;;;2.20;;
63499;SDS011;49654;51.142;14.924;2023-01-15T02:52:00;3.72;;;2.05;;
63499;SDS011;49654;51.142;14.924;2023-01-15T02:54:33;2.42;;;1.80;;
63499;SDS011;49654;51.142;14.924;2023-01-15T02:57:08;2.47;;;1.95;;
63499;SDS011;49654;51.142;14.924;2023-01-15T02:59:38;3.67;;;2.05;;
63499;SDS011;49654;51.142;14.924;2023-01-15T03:02:09;3.88;;;1.90;;
63499;SDS011;49654;51.142;14.924;2023-01-15T03:04:40;2.50;;;1.75;;
63499;SDS011;49654;51.142;14.924;2023-01-15T03:07:21;3.67;;;1.90;;
63499;SDS011;49654;51.142;14.924;2023-01-15T03:09:52;3.42;;;1.70;;
63499;SDS011;49654;51.142;14.924;2023-01-15T03:12:31;3.92;;;2.05;;
63499;SDS011;49654;51.142;14.924;2023-01-15T03:15:25;3.47;;;2.00;;
63499;SDS011;49654;51.142;14.924;2023-01-15T03:18:14;4.05;;;1.83;;
63499;SDS011;49654;51.142;14.924;2023-01-15T03:20:46;2.50;;;1.80;;
63499;SDS011;49654;51.142;14.924;2023-01-15T03:23:24;2.10;;;1.73;;
63499;SDS011;49654;51.142;14.924;2023-01-15T03:25:54;2.33;;;1.60;;
63499;SDS011;49654;51.142;14.924;2023-01-15T03:28:26;2.88;;;1.80;;
63499;SDS011;49654;51.142;14.924;2023-01-15T03:31:02;2.67;;;1.80;;
63499;SDS011;49654;51.142;14.924;2023-01-15T03:33:34;1.80;;;1.70;;
63499;SDS011;49654;51.142;14.924;2023-01-15T03:36:01;3.42;;;1.73;;
63499;SDS011;49654;51.142;14.924;2023-01-15T03:38:30;3.80;;;1.80;;
63499;SDS011;49654;51.142;14.924;2023-01-15T03:41:03;2.63;;;1.88;;
63499;SDS011;49654;51.142;14.924;2023-01-15T03:43:44;2.33;;;1.80;;
63499;SDS011;49654;51.142;14.924;2023-01-15T03:49:08;2.75;;;1.67;;
63499;SDS011;49654;51.142;14.924;2023-01-15T03:51:47;2.60;;;1.60;;
63499;SDS011;49654;51.142;14.924;2023-01-15T03:54:25;2.60;;;1.70;;
63499;SDS011;49654;51.142;14.924;2023-01-15T03:57:01;2.50;;;1.58;;
63499;SDS011;49654;51.142;14.924;2023-01-15T03:59:42;2.13;;;1.55;;
63499;SDS011;49654;51.142;14.924;2023-01-15T04:02:15;2.10;;;1.38;;
63499;SDS011;49654;51.142;14.924;2023-01-15T04:04:47;4.05;;;1.60;;
63499;SDS011;49654;51.142;14.924;2023-01-15T04:07:25;2.40;;;1.45;;
63499;SDS011;49654;51.142;14.924;2023-01-15T04:09:58;3.63;;;2.00;;
63499;SDS011;49654;51.142;14.924;2023-01-15T04:12:40;3.45;;;1.77;;
63499;SDS011;49654;51.142;14.924;2023-01-15T04:15:09;3.45;;;1.40;;
63499;SDS011;49654;51.142;14.924;2023-01-15T04:17:36;2.83;;;1.60;;
63499;SDS011;49654;51.142;14.924;2023-01-15T04:20:08;3.13;;;1.70;;
63499;SDS011;49654;51.142;14.924;2023-01-15T04:22:35;3.67;;;1.80;;
63499;SDS011;49654;51.142;14.924;2023-01-15T04:25:06;4.60;;;1.83;;
63499;SDS011;49654;51.142;14.924;2023-01-15T04:27:34;2.58;;;1.80;;
63499;SDS011;49654;51.142;14.924;2023-01-15T04:30:09;2.10;;;1.90;;
63499;SDS011;49654;51.142;14.924;2023-01-15T04:32:37;2.55;;;2.03;;
63499;SDS011;49654;51.142;14.924;2023-01-15T04:35:04;2.72;;;1.85;;
63499;SDS011;49654;51.142;14.924;2023-01-15T04:37:31;1.88;;;1.70;;
63499;SDS011;49654;51.142;14.924;2023-01-15T04:39:58;4.82;;;2.00;;
63499;SDS011;49654;51.142;14.924;2023-01-15T04:42:25;3.50;;;2.08;;
63499;SDS011;49654;51.142;14.924;2023-01-15T04:45:11;4.15;;;2.08;;
63499;SDS011;49654;51.142;14.924;2023-01-15T04:47:38;2.88;;;2.00;;
63499;SDS011;49654;51.142;14.924;2023-01-15T04:50:05;2.28;;;1.80;;
63499;SDS011;49654;51.142;14.924;2023-01-15T04:52:33;3.08;;;2.30;;
63499;SDS011;49654;51.142;14.924;2023-01-15T04:55:00;3.47;;;1.92;;
63499;SDS011;49654;51.142;14.924;2023-01-15T04:57:27;2.50;;;1.80;;
63499;SDS011;49654;51.142;14.924;2023-01-15T04:59:54;2.60;;;1.98;;
63499;SDS011;49654;51.142;14.924;2023-01-15T05:02:24;3.03;;;1.80;;
63499;SDS011;49654;51.142;14.924;2023-01-15T05:04:51;3.20;;;2.15;;
63499;SDS011;49654;51.142;14.924;2023-01-15T05:07:21;3.85;;;1.80;;
63499;SDS011;49654;51.142;14.924;2023-01-15T05:09:48;2.25;;;1.83;;
63499;SDS011;49654;51.142;14.924;2023-01-15T05:12:19;4.72;;;1.90;;
63499;SDS011;49654;51.142;14.924;2023-01-15T05:14:46;4.18;;;1.90;;
63499;SDS011;49654;51.142;14.924;2023-01-15T05:17:13;2.35;;;1.90;;
63499;SDS011;49654;51.142;14.924;2023-01-15T05:19:41;2.65;;;1.55;;
63499;SDS011;49654;51.142;14.924;2023-01-15T05:22:10;2.75;;;1.70;;
63499;SDS011;49654;51.142;14.924;2023-01-15T05:24:37;4.07;;;2.00;;
63499;SDS011;49654;51.142;14.924;2023-01-15T05:27:04;3.15;;;1.58;;
63499;SDS011;49654;51.142;14.924;2023-01-15T05:29:31;2.28;;;1.60;;
63499;SDS011;49654;51.142;14.924;2023-01-15T05:31:58;2.00;;;1.63;;
63499;SDS011;49654;51.142;14.924;2023-01-15T05:34:25;2.42;;;1.55;;
63499;SDS011;49654;51.142;14.924;2023-01-15T05:36:53;2.20;;;1.70;;
63499;SDS011;49654;51.142;14.924;2023-01-15T05:39:20;3.28;;;1.77;;
63499;SDS011;49654;51.142;14.924;2023-01-15T05:41:47;2.63;;;1.67;;
63499;SDS011;49654;51.142;14.924;2023-01-15T05:44:15;4.00;;;1.98;;
63499;SDS011;49654;51.142;14.924;2023-01-15T05:46:44;4.68;;;1.83;;
63499;SDS011;49654;51.142;14.924;2023-01-15T05:49:15;2.13;;;1.77;;
63499;SDS011;49654;51.142;14.924;2023-01-15T05:51:44;1.92;;;1.70;;
63499;SDS011;49654;51.142;14.924;2023-01-15T05:54:16;1.65;;;1.55;;
63499;SDS011;49654;51.142;14.924;2023-01-15T05:56:45;2.60;;;1.80;;
63499;SDS011;49654;51.142;14.924;2023-01-15T05:59:13;3.33;;;1.50;;
63499;SDS011;49654;51.142;14.924;2023-01-15T06:01:42;2.50;;;1.80;;
63499;SDS011;49654;51.142;14.924;2023-01-15T06:04:12;3.10;;;1.48;;
63499;SDS011;49654;51.142;14.924;2023-01-15T06:06:42;1.83;;;1.60;;
63499;SDS011;49654;51.142;14.924;2023-01-15T06:09:10;3.08;;;1.50;;
63499;SDS011;49654;51.142;14.924;2023-01-15T06:11:43;2.70;;;2.10;;
63499;SDS011;49654;51.142;14.924;2023-01-15T06:14:12;2.45;;;1.45;;
63499;SDS011;49654;51.142;14.924;2023-01-15T06:16:40;2.22;;;1.92;;
63499;SDS011;49654;51.142;14.924;2023-01-15T06:19:13;3.22;;;1.63;;
63499;SDS011;49654;51.142;14.924;2023-01-15T06:21:56;2.08;;;1.50;;
63499;SDS011;49654;51.142;14.924;2023-01-15T06:24:23;2.17;;;1.50;;
63499;SDS011;49654;51.142;14.924;2023-01-15T06:26:56;1.95;;;1.60;;
63499;SDS011;49654;51.142;14.924;2023-01-15T06:29:30;3.33;;;1.65;;
63499;SDS011;49654;51.142;14.924;2023-01-15T06:32:00;2.45;;;1.75;;
63499;SDS011;49654;51.142;14.924;2023-01-15T06:34:29;3.08;;;1.50;;
63499;SDS011;49654;51.142;14.924;2023-01-15T06:36:58;2.70;;;1.33;;
63499;SDS011;49654;51.142;14.924;2023-01-15T06:39:25;1.90;;;1.10;;
63499;SDS011;49654;51.142;14.924;2023-01-15T06:41:52;1.85;;;1.40;;
63499;SDS011;49654;51.142;14.924;2023-01-15T06:44:38;2.38;;;1.17;;
63499;SDS011;49654;51.142;14.924;2023-01-15T06:47:23;1.30;;;1.20;;
63499;SDS011;49654;51.142;14.924;2023-01-15T06:49:56;1.65;;;1.42;;
63499;SDS011;49654;51.142;14.924;2023-01-15T06:52:27;2.03;;;1.42;;
63499;SDS011;49654;51.142;14.924;2023-01-15T06:54:58;3.00;;;1.48;;
63499;SDS011;49654;51.142;14.924;2023-01-15T06:57:25;3.00;;;1.92;;
63499;SDS011;49654;51.142;14.924;2023-01-15T06:59:53;1.80;;;1.33;;
63499;SDS011;49654;51.142;14.924;2023-01-15T07:02:20;1.25;;;1.10;;
63499;SDS011;49654;51.142;14.924;2023-01-15T07:04:47;1.70;;;1.20;;
63499;SDS011;49654;51.142;14.924;2023-01-15T07:07:15;1.67;;;1.20;;
63499;SDS011;49654;51.142;14.924;2023-01-15T07:09:43;1.77;;;1.20;;
63499;SDS011;49654;51.142;14.924;2023-01-15T07:12:10;2.33;;;1.30;;
63499;SDS011;49654;51.142;14.924;2023-01-15T07:14:38;2.40;;;1.48;;
63499;SDS011;49654;51.142;14.924;2023-01-15T07:17:06;3.08;;;1.40;;
63499;SDS011;49654;51.142;14.924;2023-01-15T07:19:36;1.40;;;1.30;;
63499;SDS011;49654;51.142;14.924;2023-01-15T07:22:10;1.33;;;1.10;;
63499;SDS011;49654;51.142;14.924;2023-01-15T07:24:38;3.45;;;1.20;;
63499;SDS011;49654;51.142;14.924;2023-01-15T07:27:05;1.52;;;1.13;;
63499;SDS011;49654;51.142;14.924;2023-01-15T07:29:32;1.33;;;1.23;;
63499;SDS011;49654;51.142;14.924;2023-01-15T07:32:01;1.50;;;1.40;;
63499;SDS011;49654;51.142;14.924;2023-01-15T07:34:31;1.70;;;1.10;;
63499;SDS011;49654;51.142;14.924;2023-01-15T07:36:58;1.63;;;1.10;;
63499;SDS011;49654;51.142;14.924;2023-01-15T07:39:25;2.60;;;1.35;;
63499;SDS011;49654;51.142;14.924;2023-01-15T07:41:53;1.45;;;1.00;;
63499;SDS011;49654;51.142;14.924;2023-01-15T07:44:37;1.77;;;1.45;;
63499;SDS011;49654;51.142;14.924;2023-01-15T07:47:23;1.75;;;1.25;;
63499;SDS011;49654;51.142;14.924;2023-01-15T07:50:10;1.80;;;1.35;;
63499;SDS011;49654;51.142;14.924;2023-01-15T07:52:39;1.52;;;1.08;;
63499;SDS011;49654;51.142;14.924;2023-01-15T07:55:06;1.40;;;1.05;;
63499;SDS011;49654;51.142;14.924;2023-01-15T07:57:35;1.52;;;1.10;;
63499;SDS011;49654;51.142;14.924;2023-01-15T08:00:03;2.33;;;1.13;;
63499;SDS011;49654;51.142;14.924;2023-01-15T08:02:31;1.55;;;0.93;;
63499;SDS011;49654;51.142;14.924;2023-01-15T08:04:57;1.45;;;1.00;;
63499;SDS011;49654;51.142;14.924;2023-01-15T08:07:26;2.13;;;1.08;;
63499;SDS011;49654;51.142;14.924;2023-01-15T08:09:53;1.60;;;1.05;;
63499;SDS011;49654;51.142;14.924;2023-01-15T08:12:20;1.58;;;1.08;;
63499;SDS011;49654;51.142;14.924;2023-01-15T08:15:04;1.65;;;1.20;;
63499;SDS011;49654;51.142;14.924;2023-01-15T08:17:39;0.90;;;0.80;;
63499;SDS011;49654;51.142;14.924;2023-01-15T08:20:07;1.30;;;1.20;;
63499;SDS011;49654;51.142;14.924;2023-01-15T08:22:38;1.30;;;1.20;;
63499;SDS011;49654;51.142;14.924;2023-01-15T08:25:06;1.75;;;1.10;;
63499;SDS011;49654;51.142;14.924;2023-01-15T08:27:34;1.00;;;0.90;;
63499;SDS011;49654;51.142;14.924;2023-01-15T08:30:01;1.15;;;1.00;;
63499;SDS011;49654;51.142;14.924;2023-01-15T08:32:29;1.08;;;0.90;;
63499;SDS011;49654;51.142;14.924;2023-01-15T08:34:56;1.38;;;1.10;;
63499;SDS011;49654;51.142;14.924;2023-01-15T08:37:23;1.40;;;0.90;;
63499;SDS011;49654;51.142;14.924;2023-01-15T08:39:51;0.80;;;0.80;;
63499;SDS011;49654;51.142;14.924;2023-01-15T08:42:18;0.68;;;0.68;;
63499;SDS011;49654;51.142;14.924;2023-01-15T08:44:46;0.65;;;0.65;;
63499;SDS011;49654;51.142;14.924;2023-01-15T08:47:13;0.60;;;0.53;;
63499;SDS011;49654;51.142;14.924;2023-01-15T08:49:40;1.83;;;0.80;;
63499;SDS011;49654;51.142;14.924;2023-01-15T08:52:07;0.90;;;0.70;;
63499;SDS011;49654;51.142;14.924;2023-01-15T08:54:34;0.50;;;0.50;;
63499;SDS011;49654;51.142;14.924;2023-01-15T08:57:03;0.77;;;0.77;;
63499;SDS011;49654;51.142;14.924;2023-01-15T08:59:30;2.00;;;0.80;;
63499;SDS011;49654;51.142;14.924;2023-01-15T09:01:56;1.73;;;0.63;;
63499;SDS011;49654;51.142;14.924;2023-01-15T09:04:23;2.40;;;0.60;;
63499;SDS011;49654;51.142;14.924;2023-01-15T09:06:50;1.93;;;0.80;;
63499;SDS011;49654;51.142;14.924;2023-01-15T09:09:17;3.10;;;1.00;;
63499;SDS011;49654;51.142;14.924;2023-01-15T09:11:44;2.63;;;0.87;;
63499;SDS011;49654;51.142;14.924;2023-01-15T09:14:13;1.83;;;0.90;;
63499;SDS011;49654;51.142;14.924;2023-01-15T09:16:41;2.97;;;0.90;;
63499;SDS011;49654;51.142;14.924;2023-01-15T09:19:08;1.90;;;1.00;;
63499;SDS011;49654;51.142;14.924;2023-01-15T09:21:37;1.50;;;0.80;;
63499;SDS011;49654;51.142;14.924;2023-01-15T09:24:05;1.47;;;0.90;;
63499;SDS011;49654;51.142;14.924;2023-01-15T09:26:32;1.33;;;0.90;;
63499;SDS011;49654;51.142;14.924;2023-01-15T09:29:01;1.90;;;0.93;;
63499;SDS011;49654;51.142;14.924;2023-01-15T09:31:31;2.47;;;1.00;;
63499;SDS011;49654;51.142;14.924;2023-01-15T09:33:58;2.60;;;1.00;;
63499;SDS011;49654;51.142;14.924;2023-01-15T09:36:26;1.53;;;0.90;;
63499;SDS011;49654;51.142;14.924;2023-01-15T09:38:55;2.03;;;0.97;;
63499;SDS011;49654;51.142;14.924;2023-01-15T09:41:23;3.03;;;0.90;;
63499;SDS011;49654;51.142;14.924;2023-01-15T09:44:15;2.67;;;2.00;;
63499;SDS011;49654;51.142;14.924;2023-01-15T09:47:00;0.93;;;0.83;;
63499;SDS011;49654;51.142;14.924;2023-01-15T09:49:36;2.45;;;1.02;;
63499;SDS011;49654;51.142;14.924;2023-01-15T09:52:17;0.82;;;0.80;;
63499;SDS011;49654;51.142;14.924;2023-01-15T09:54:53;1.27;;;0.50;;
63499;SDS011;49654;51.142;14.924;2023-01-15T09:57:27;1.33;;;0.93;;
63499;SDS011;49654;51.142;14.924;2023-01-15T09:59:55;0.93;;;0.80;;
63499;SDS011;49654;51.142;14.924;2023-01-15T10:02:29;0.80;;;0.80;;
63499;SDS011;49654;51.142;14.924;2023-01-15T10:05:03;1.90;;;0.87;;
63499;SDS011;49654;51.142;14.924;2023-01-15T10:07:35;0.83;;;0.60;;
63499;SDS011;49654;51.142;14.924;2023-01-15T10:10:10;1.73;;;0.90;;
63499;SDS011;49654;51.142;14.924;2023-01-15T10:12:39;1.77;;;0.80;;
63499;SDS011;49654;51.142;14.924;2023-01-15T10:15:13;1.33;;;1.10;;
63499;SDS011;49654;51.142;14.924;2023-01-15T10:17:47;0.93;;;0.80;;
63499;SDS011;49654;51.142;14.924;2023-01-15T10:20:23;1.43;;;1.03;;
63499;SDS011;49654;51.142;14.924;2023-01-15T10:23:12;1.92;;;1.00;;
63499;SDS011;49654;51.142;14.924;2023-01-15T10:26:01;1.63;;;0.90;;
63499;SDS011;49654;51.142;14.924;2023-01-15T10:28:40;1.27;;;0.80;;
63499;SDS011;49654;51.142;14.924;2023-01-15T10:31:30;1.10;;;1.00;;
63499;SDS011;49654;51.142;14.924;2023-01-15T10:34:15;1.30;;;0.90;;
63499;SDS011;49654;51.142;14.924;2023-01-15T10:36:54;0.97;;;0.90;;
63499;SDS011;49654;51.142;14.924;2023-01-15T10:39:28;1.80;;;0.90;;
63499;SDS011;49654;51.142;14.924;2023-01-15T10:42:03;2.67;;;0.90;;
63499;SDS011;49654;51.142;14.924;2023-01-15T10:44:42;0.70;;;0.70;;
63499;SDS011;49654;51.142;14.924;2023-01-15T10:47:15;1.03;;;0.93;;
63499;SDS011;49654;51.142;14.924;2023-01-15T10:49:49;2.03;;;0.90;;
63499;SDS011;49654;51.142;14.924;2023-01-15T10:52:21;0.70;;;0.70;;
63499;SDS011;49654;51.142;14.924;2023-01-15T10:54:51;1.07;;;0.87;;
63499;SDS011;49654;51.142;14.924;2023-01-15T10:57:23;1.73;;;0.83;;
63499;SDS011;49654;51.142;14.924;2023-01-15T10:59:58;1.17;;;1.00;;
63499;SDS011;49654;51.142;14.924;2023-01-15T11:02:27;1.27;;;1.00;;
63499;SDS011;49654;51.142;14.924;2023-01-15T11:04:59;1.73;;;1.00;;
63499;SDS011;49654;51.142;14.924;2023-01-15T11:07:29;1.73;;;0.97;;
63499;SDS011;49654;51.142;14.924;2023-01-15T11:10:04;1.57;;;1.20;;
63499;SDS011;49654;51.142;14.924;2023-01-15T11:12:34;2.00;;;1.10;;
63499;SDS011;49654;51.142;14.924;2023-01-15T11:15:33;1.43;;;1.03;;
63499;SDS011;49654;51.142;14.924;2023-01-15T11:18:19;1.23;;;1.00;;
63499;SDS011;49654;51.142;14.924;2023-01-15T11:21:11;1.17;;;1.07;;
63499;SDS011;49654;51.142;14.924;2023-01-15T11:23:41;1.80;;;1.03;;
63499;SDS011;49654;51.142;14.924;2023-01-15T11:26:08;1.73;;;1.30;;
63499;SDS011;49654;51.142;14.924;2023-01-15T11:28:37;4.07;;;1.20;;
63499;SDS011;49654;51.142;14.924;2023-01-15T11:31:06;2.07;;;1.87;;
63499;SDS011;49654;51.142;14.924;2023-01-15T11:33:34;1.40;;;1.20;;
63499;SDS011;49654;51.142;14.924;2023-01-15T11:36:04;1.73;;;1.17;;
63499;SDS011;49654;51.142;14.924;2023-01-15T11:38:43;1.77;;;1.10;;
63499;SDS011;49654;51.142;14.924;2023-01-15T11:41:16;1.70;;;1.00;;
63499;SDS011;49654;51.142;14.924;2023-01-15T11:43:52;2.80;;;1.30;;
63499;SDS011;49654;51.142;14.924;2023-01-15T11:46:38;4.00;;;1.10;;
63499;SDS011;49654;51.142;14.924;2023-01-15T11:49:23;1.10;;;1.00;;
63499;SDS011;49654;51.142;14.924;2023-01-15T11:52:08;1.93;;;0.80;;
63499;SDS011;49654;51.142;14.924;2023-01-15T11:54:39;1.47;;;0.80;;
63499;SDS011;49654;51.142;14.924;2023-01-15T11:57:07;1.17;;;0.87;;
63499;SDS011;49654;51.142;14.924;2023-01-15T11:59:36;2.40;;;1.07;;
63499;SDS011;49654;51.142;14.924;2023-01-15T12:02:05;1.10;;;1.00;;
63499;SDS011;49654;51.142;14.924;2023-01-15T12:04:44;1.10;;;1.00;;
63499;SDS011;49654;51.142;14.924;2023-01-15T12:07:16;1.10;;;1.00;;
63499;SDS011;49654;51.142;14.924;2023-01-15T12:10:04;2.50;;;1.17;;
63499;SDS011;49654;51.142;14.924;2023-01-15T12:12:43;1.57;;;1.20;;
63499;SDS011;49654;51.142;14.924;2023-01-15T12:15:22;2.10;;;1.20;;
63499;SDS011;49654;51.142;14.924;2023-01-15T12:18:03;1.00;;;0.90;;
63499;SDS011;49654;51.142;14.924;2023-01-15T12:20:54;1.73;;;1.20;;
63499;SDS011;49654;51.142;14.924;2023-01-15T12:23:38;1.30;;;1.10;;
63499;SDS011;49654;51.142;14.924;2023-01-15T12:26:23;1.40;;;1.00;;
63499;SDS011;49654;51.142;14.924;2023-01-15T12:28:54;1.43;;;1.13;;
63499;SDS011;49654;51.142;14.924;2023-01-15T12:31:28;1.27;;;0.90;;
63499;SDS011;49654;51.142;14.924;2023-01-15T12:34:02;1.20;;;0.90;;
63499;SDS011;49654;51.142;14.924;2023-01-15T12:36:40;0.90;;;0.70;;
63499;SDS011;49654;51.142;14.924;2023-01-15T12:39:14;0.60;;;0.60;;
63499;SDS011;49654;51.142;14.924;2023-01-15T12:41:48;1.73;;;1.17;;
63499;SDS011;49654;51.142;14.924;2023-01-15T12:44:39;1.10;;;1.00;;
63499;SDS011;49654;51.142;14.924;2023-01-15T12:47:28;0.80;;;0.80;;
63499;SDS011;49654;51.142;14.924;2023-01-15T12:50:02;1.10;;;0.80;;
63499;SDS011;49654;51.142;14.924;2023-01-15T12:52:41;1.53;;;1.20;;
63499;SDS011;49654;51.142;14.924;2023-01-15T12:55:13;1.20;;;1.10;;
63499;SDS011;49654;51.142;14.924;2023-01-15T12:57:45;1.67;;;1.23;;
63499;SDS011;49654;51.142;14.924;2023-01-15T13:00:16;2.33;;;1.40;;
63499;SDS011;49654;51.142;14.924;2023-01-15T13:02:53;0.80;;;0.80;;
63499;SDS011;49654;51.142;14.924;2023-01-15T13:05:28;1.60;;;0.70;;
63499;SDS011;49654;51.142;14.924;2023-01-15T13:07:58;0.70;;;0.70;;
63499;SDS011;49654;51.142;14.924;2023-01-15T13:10:29;0.60;;;0.60;;
63499;SDS011;49654;51.142;14.924;2023-01-15T13:13:11;1.10;;;0.90;;
63499;SDS011;49654;51.142;14.924;2023-01-15T13:15:44;0.60;;;0.60;;
63499;SDS011;49654;51.142;14.924;2023-01-15T13:18:26;0.80;;;0.80;;
63499;SDS011;49654;51.142;14.924;2023-01-15T13:20:58;0.60;;;0.60;;
63499;SDS011;49654;51.142;14.924;2023-01-15T13:23:36;1.03;;;0.80;;
63499;SDS011;49654;51.142;14.924;2023-01-15T13:26:19;2.47;;;0.70;;
63499;SDS011;49654;51.142;14.924;2023-01-15T13:29:04;0.80;;;0.80;;
63499;SDS011;49654;51.142;14.924;2023-01-15T13:31:42;1.20;;;1.10;;
63499;SDS011;49654;51.142;14.924;2023-01-15T13:34:17;1.30;;;0.90;;
63499;SDS011;49654;51.142;14.924;2023-01-15T13:36:51;0.87;;;0.70;;
63499;SDS011;49654;51.142;14.924;2023-01-15T13:39:22;1.17;;;0.70;;
63499;SDS011;49654;51.142;14.924;2023-01-15T13:42:01;2.00;;;0.80;;
63499;SDS011;49654;51.142;14.924;2023-01-15T13:44:49;0.70;;;0.70;;
63499;SDS011;49654;51.142;14.924;2023-01-15T13:47:19;1.50;;;0.90;;
63499;SDS011;49654;51.142;14.924;2023-01-15T13:49:49;1.10;;;0.77;;
63499;SDS011;49654;51.142;14.924;2023-01-15T13:52:23;1.00;;;0.90;;
63499;SDS011;49654;51.142;14.924;2023-01-15T13:54:53;2.30;;;1.50;;
63499;SDS011;49654;51.142;14.924;2023-01-15T13:57:22;1.00;;;0.80;;
63499;SDS011;49654;51.142;14.924;2023-01-15T13:59:54;1.17;;;0.70;;
63499;SDS011;49654;51.142;14.924;2023-01-15T14:02:25;0.80;;;0.77;;
63499;SDS011;49654;51.142;14.924;2023-01-15T14:04:54;1.17;;;0.70;;
63499;SDS011;49654;51.142;14.924;2023-01-15T14:07:30;0.57;;;0.57;;
63499;SDS011;49654;51.142;14.924;2023-01-15T14:10:08;1.47;;;0.90;;
63499;SDS011;49654;51.142;14.924;2023-01-15T14:12:48;1.30;;;0.90;;
63499;SDS011;49654;51.142;14.924;2023-01-15T14:15:31;0.97;;;0.80;;
63499;SDS011;49654;51.142;14.924;2023-01-15T14:18:13;1.50;;;0.80;;
63499;SDS011;49654;51.142;14.924;2023-01-15T14:21:19;1.37;;;1.10;;
63499;SDS011;49654;51.142;14.924;2023-01-15T14:23:56;0.70;;;0.60;;
63499;SDS011;49654;51.142;14.924;2023-01-15T14:26:36;0.90;;;0.67;;
63499;SDS011;49654;51.142;14.924;2023-01-15T14:29:22;0.70;;;0.70;;
63499;SDS011;49654;51.142;14.924;2023-01-15T14:32:06;3.10;;;0.90;;
63499;SDS011;49654;51.142;14.924;2023-01-15T14:34:40;0.87;;;0.80;;
63499;SDS011;49654;51.142;14.924;2023-01-15T14:37:20;0.63;;;0.60;;
63499;SDS011;49654;51.142;14.924;2023-01-15T14:39:50;0.97;;;0.80;;
63499;SDS011;49654;51.142;14.924;2023-01-15T14:42:23;0.70;;;0.70;;
63499;SDS011;49654;51.142;14.924;2023-01-15T14:45:16;1.07;;;0.80;;
63499;SDS011;49654;51.142;14.924;2023-01-15T14:47:48;1.10;;;0.70;;
63499;SDS011;49654;51.142;14.924;2023-01-15T14:50:21;0.70;;;0.50;;
63499;SDS011;49654;51.142;14.924;2023-01-15T14:52:58;1.23;;;0.80;;
63499;SDS011;49654;51.142;14.924;2023-01-15T14:55:29;0.70;;;0.70;;
63499;SDS011;49654;51.142;14.924;2023-01-15T14:57:57;1.33;;;0.90;;
63499;SDS011;49654;51.142;14.924;2023-01-15T15:00:29;1.27;;;0.80;;
63499;SDS011;49654;51.142;14.924;2023-01-15T15:03:02;2.50;;;0.60;;
63499;SDS011;49654;51.142;14.924;2023-01-15T15:05:39;1.10;;;0.90;;
63499;SDS011;49654;51.142;14.924;2023-01-15T15:08:10;1.10;;;0.87;;
63499;SDS011;49654;51.142;14.924;2023-01-15T15:10:39;1.60;;;0.80;;
63499;SDS011;49654;51.142;14.924;2023-01-15T15:13:13;0.90;;;0.80;;
63499;SDS011;49654;51.142;14.924;2023-01-15T15:15:44;2.77;;;0.70;;
63499;SDS011;49654;51.142;14.924;2023-01-15T15:18:23;2.00;;;0.90;;